Time;durP1;ratioP1;P1;durP2;ratioP2;P2;SDS_P1;SDS_P2;PMS_P1;PMS_P2;Temp;Humidity;BMP_temperature;BMP_pressure;BME280_temperature;BME280_humidity;BME280_pressure;Samples;Min_cycle;Max_cycle;Signal;HPM_P1;HPM_P2
2022/01/25 00:24:16;;;;;;;;;;;10.10;91.50;;;;;;4956803;29;19974;-78
2022/01/25 00:24:34;;;;;;;;;;;10.10;91.50;;;;;;4955994;29;19944;-78
2022/01/25 00:27:11;;;;;;;;;;;10.10;91.40;;;;;;4938941;29;20373;-78
2022/01/25 00:32:05;;;;;;;;;;;10.10;91.40;;;;;;4956766;29;19910;-78
2022/01/25 00:34:31;;;;;;;;;;;10.10;91.50;;;;;;4938815;29;19906;-78
2022/01/25 00:36:56;;;;;;;;;;;10.10;91.40;;;;;;4938386;29;19917;-78
2022/01/25 00:39:22;;;;;;;;;;;10.00;91.40;;;;;;4938580;29;19957;-78
2022/01/25 00:41:47;;;;;;;;;;;10.10;91.40;;;;;;4938605;29;19910;-78
2022/01/25 00:44:13;;;;;;;;;;;10.10;91.40;;;;;;4943790;28;19929;-78
2022/01/25 00:46:39;;;;;;;;;;;10.00;91.40;;;;;;4975845;28;19906;-78
2022/01/25 00:49:04;;;;;;;;;;;10.10;91.40;;;;;;4963584;28;19911;-80
2022/01/25 00:54:25;;;;;;;;;;;10.00;91.40;;;;;;4984844;28;19913;-79
2022/01/25 00:56:51;;;;;;;;;;;10.10;91.40;;;;;;4967121;28;19910;-79
2022/01/25 00:59:18;;;;;;;;;;;10.00;91.40;;;;;;4967807;28;19913;-80
2022/01/25 01:01:44;;;;;;;;;;;10.00;91.40;;;;;;4985179;28;20416;-79
2022/01/25 01:04:10;;;;;;;;;;;10.10;91.40;;;;;;4968061;28;19949;-80
2022/01/25 01:06:37;;;;;;;;;;;10.10;91.40;;;;;;4966594;28;19910;-79
2022/01/25 01:09:02;;;;;;;;;;;10.10;91.40;;;;;;4967366;28;19906;-78
2022/01/25 01:11:42;;;;;;;;;;;10.00;91.40;;;;;;4965795;28;20397;-79
2022/01/25 01:14:21;;;;;;;;;;;10.00;91.60;;;;;;4966196;28;20431;-79
2022/01/25 01:30:56;;;;;;;;;;;10.00;91.30;;;;;;4982229;28;20400;-78
2022/01/25 01:36:39;;;;;;;;;;;10.00;91.30;;;;;;4980782;28;20010;-78
2022/01/25 01:41:49;;;;;;;;;;;10.00;91.30;;;;;;4980957;28;19906;-79
2022/01/25 01:44:23;;;;;;;;;;;10.00;91.30;;;;;;4980329;28;19906;-79
2022/01/25 01:49:29;;;;;;;;;;;10.00;91.30;;;;;;4981329;28;19910;-78
2022/01/25 01:51:54;;;;;;;;;;;10.00;91.30;;;;;;4962308;28;19910;-78
2022/01/25 01:54:20;;;;;;;;;;;10.00;91.20;;;;;;4962128;28;19910;-78
2022/01/25 01:56:45;;;;;;;;;;;10.00;91.30;;;;;;4979598;28;20005;-79
2022/01/25 01:59:12;;;;;;;;;;;10.00;91.30;;;;;;4961171;28;19972;-78
2022/01/25 02:01:39;;;;;;;;;;;10.00;91.30;;;;;;4979392;28;19910;-79
2022/01/25 02:04:07;;;;;;;;;;;10.00;91.30;;;;;;4978773;28;19906;-79
2022/01/25 02:06:32;;;;;;;;;;;10.00;91.30;;;;;;4968542;28;19953;-80
2022/01/25 02:08:58;;;;;;;;;;;10.00;91.20;;;;;;4969215;28;19906;-80
2022/01/25 02:11:23;;;;;;;;;;;10.00;91.20;;;;;;4969235;28;19949;-79
2022/01/25 02:13:49;;;;;;;;;;;10.00;91.20;;;;;;4969218;28;19910;-79
2022/01/25 02:16:34;;;;;;;;;;;10.00;91.20;;;;;;4967645;28;19949;-79
2022/01/25 02:24:29;;;;;;;;;;;10.00;91.20;;;;;;4984756;28;20584;-79
2022/01/25 02:26:56;;;;;;;;;;;10.00;91.20;;;;;;4965123;28;19906;-80
2022/01/25 02:29:22;;;;;;;;;;;10.00;91.20;;;;;;4981215;28;19961;-78
2022/01/25 02:31:47;;;;;;;;;;;10.00;91.20;;;;;;4964681;28;19910;-79
2022/01/25 02:34:13;;;;;;;;;;;10.00;91.20;;;;;;4980911;28;20416;-79
2022/01/25 02:36:39;;;;;;;;;;;10.00;91.20;;;;;;4981428;28;20024;-80
2022/01/25 02:39:04;;;;;;;;;;;10.00;91.20;;;;;;4965307;28;20610;-79
2022/01/25 02:41:30;;;;;;;;;;;10.00;91.20;;;;;;4944132;29;19929;-79
2022/01/25 02:43:56;;;;;;;;;;;10.00;91.20;;;;;;4944293;29;20358;-79
2022/01/25 02:48:29;;;;;;;;;;;10.00;91.20;;;;;;4943759;29;19906;-78
2022/01/25 02:49:08;;;;;;;;;;;10.00;91.20;;;;;;4961483;29;19906;-79
2022/01/25 02:51:41;;;;;;;;;;;10.00;91.20;;;;;;4960184;29;20326;-78
2022/01/25 02:54:08;;;;;;;;;;;10.00;91.20;;;;;;4943192;28;19911;-78
2022/01/25 02:56:34;;;;;;;;;;;10.00;91.20;;;;;;4942730;29;19917;-79
2022/01/25 02:59:00;;;;;;;;;;;10.00;91.20;;;;;;4960609;29;19957;-78
2022/01/25 03:01:27;;;;;;;;;;;10.00;91.20;;;;;;4942048;29;19910;-78
2022/01/25 03:03:52;;;;;;;;;;;9.90;91.20;;;;;;4944265;28;19907;-79
2022/01/25 03:06:19;;;;;;;;;;;10.00;91.20;;;;;;4960412;28;19906;-78
2022/01/25 03:08:47;;;;;;;;;;;10.00;91.20;;;;;;4960505;28;20372;-77
2022/01/25 03:11:13;;;;;;;;;;;10.00;91.20;;;;;;4977450;28;20293;-79
2022/01/25 03:13:50;;;;;;;;;;;9.90;91.20;;;;;;4959492;28;19906;-78
2022/01/25 03:16:33;;;;;;;;;;;10.00;91.20;;;;;;4965161;28;19999;-80
2022/01/25 03:19:02;;;;;;;;;;;10.00;91.20;;;;;;4963500;29;19906;-79
2022/01/25 03:23:54;;;;;;;;;;;9.90;91.10;;;;;;4965092;29;19922;-81
2022/01/25 03:26:20;;;;;;;;;;;9.90;91.20;;;;;;4964729;29;19910;-79
2022/01/25 03:28:45;;;;;;;;;;;9.90;91.20;;;;;;4947645;29;20449;-79
2022/01/25 03:31:11;;;;;;;;;;;9.90;91.10;;;;;;4946737;29;20373;-79
2022/01/25 03:33:37;;;;;;;;;;;10.00;91.20;;;;;;4946919;29;19913;-79
2022/01/25 03:36:03;;;;;;;;;;;9.90;91.10;;;;;;4947488;29;19911;-80
2022/01/25 03:38:29;;;;;;;;;;;9.90;91.20;;;;;;4947170;29;19929;-80
2022/01/25 03:40:54;;;;;;;;;;;9.90;91.10;;;;;;4947298;29;19906;-80
2022/01/25 03:43:20;;;;;;;;;;;9.90;91.20;;;;;;4949046;28;19910;-79
2022/01/25 03:45:58;;;;;;;;;;;9.90;91.10;;;;;;4983668;28;19906;-79
2022/01/25 03:50:50;;;;;;;;;;;9.90;91.10;;;;;;4983171;28;19907;-81
2022/01/25 03:53:17;;;;;;;;;;;9.90;91.10;;;;;;4966238;28;19906;-80
2022/01/25 03:55:43;;;;;;;;;;;9.90;91.10;;;;;;4961505;28;19919;-79
2022/01/25 03:58:08;;;;;;;;;;;9.90;91.10;;;;;;4975410;28;19906;-81
2022/01/25 04:00:35;;;;;;;;;;;9.90;91.10;;;;;;4969162;28;20012;-80
2022/01/25 04:03:05;;;;;;;;;;;9.90;91.10;;;;;;4969381;28;20395;-80
2022/01/25 04:05:38;;;;;;;;;;;9.90;91.10;;;;;;4969599;28;19913;-79
2022/01/25 04:08:03;;;;;;;;;;;9.90;91.10;;;;;;4969062;28;19948;-80
2022/01/25 04:10:29;;;;;;;;;;;9.90;91.10;;;;;;4968950;28;19910;-79
2022/01/25 04:12:54;;;;;;;;;;;9.90;91.10;;;;;;4984893;28;19906;-79
2022/01/25 04:15:20;;;;;;;;;;;9.90;91.10;;;;;;4968372;28;19909;-80
2022/01/25 04:17:50;;;;;;;;;;;9.90;91.10;;;;;;4968193;28;19906;-81
2022/01/25 04:25:28;;;;;;;;;;;9.90;91.10;;;;;;4988401;28;19993;-79
2022/01/25 04:27:54;;;;;;;;;;;9.90;91.10;;;;;;4970992;28;19910;-80
2022/01/25 04:30:19;;;;;;;;;;;9.90;91.10;;;;;;4971649;28;19913;-80
2022/01/25 04:32:53;;;;;;;;;;;9.90;91.10;;;;;;4988819;28;19906;-79
2022/01/25 04:49:16;;;;;;;;;;;9.90;91.10;;;;;;4928823;29;19914;-80
2022/01/25 04:59:46;;;;;;;;;;;9.90;91.10;;;;;;4988934;28;19941;-80
2022/01/25 05:05:05;;;;;;;;;;;9.90;91.10;;;;;;4988863;28;19910;-81
2022/01/25 05:10:08;;;;;;;;;;;9.90;91.10;;;;;;4983684;28;19930;-81
2022/01/25 05:12:41;;;;;;;;;;;9.90;91.10;;;;;;4976255;28;20357;-79
2022/01/25 05:18:36;;;;;;;;;;;9.90;91.10;;;;;;4990808;28;19913;-81
2022/01/25 05:23:27;;;;;;;;;;;9.90;91.10;;;;;;4989983;28;20329;-82
2022/01/25 05:25:52;;;;;;;;;;;9.90;91.10;;;;;;4972087;28;19906;-80
2022/01/25 05:28:18;;;;;;;;;;;9.90;91.10;;;;;;4989329;28;19913;-80
2022/01/25 05:30:43;;;;;;;;;;;9.90;91.10;;;;;;4972132;28;19956;-81
2022/01/25 05:33:09;;;;;;;;;;;9.90;91.00;;;;;;4970535;28;19906;-79
2022/01/25 05:35:35;;;;;;;;;;;9.90;91.10;;;;;;4969545;28;19917;-81
2022/01/25 05:38:01;;;;;;;;;;;9.90;91.10;;;;;;4984327;28;19906;-79
2022/01/25 05:40:43;;;;;;;;;;;9.90;91.10;;;;;;4977753;28;19917;-79
2022/01/25 05:48:21;;;;;;;;;;;9.90;91.10;;;;;;4980551;28;19910;-79
2022/01/25 05:50:47;;;;;;;;;;;9.90;91.10;;;;;;4981577;28;19929;-81
2022/01/25 05:53:12;;;;;;;;;;;9.90;91.10;;;;;;4980827;28;19910;-80
2022/01/25 05:55:38;;;;;;;;;;;9.90;91.10;;;;;;4958070;28;19917;-80
2022/01/25 05:58:03;;;;;;;;;;;9.90;91.10;;;;;;4965444;28;20380;-82
2022/01/25 06:00:29;;;;;;;;;;;9.90;91.10;;;;;;4965185;28;20365;-78
2022/01/25 06:02:56;;;;;;;;;;;9.90;91.00;;;;;;4965605;28;19969;-81
2022/01/25 06:05:23;;;;;;;;;;;9.90;91.00;;;;;;4982291;28;19949;-81
2022/01/25 06:07:49;;;;;;;;;;;9.90;91.00;;;;;;4960378;28;20424;-81
2022/01/25 06:10:14;;;;;;;;;;;9.90;91.00;;;;;;4964436;28;19906;-81
2022/01/25 06:12:42;;;;;;;;;;;9.90;91.00;;;;;;4980566;28;20628;-86
2022/01/25 06:15:08;;;;;;;;;;;9.90;91.10;;;;;;4947613;28;20009;-81
2022/01/25 06:17:33;;;;;;;;;;;9.90;91.10;;;;;;4964554;28;19910;-80
2022/01/25 06:19:59;;;;;;;;;;;9.90;91.00;;;;;;4968793;28;19906;-81
2022/01/25 06:22:24;;;;;;;;;;;9.90;91.00;;;;;;4967381;28;19907;-80
2022/01/25 06:24:50;;;;;;;;;;;9.90;91.00;;;;;;4945997;28;19914;-77
2022/01/25 06:27:15;;;;;;;;;;;9.90;91.00;;;;;;4960680;28;19916;-81
2022/01/25 06:29:41;;;;;;;;;;;9.90;91.00;;;;;;4955535;28;20071;-81
2022/01/25 06:32:06;;;;;;;;;;;9.90;91.00;;;;;;4952474;28;19910;-84
2022/01/25 06:34:32;;;;;;;;;;;9.90;91.00;;;;;;4976931;28;19941;-80
2022/01/25 06:36:57;;;;;;;;;;;9.90;91.00;;;;;;4955526;28;20008;-79
2022/01/25 06:39:23;;;;;;;;;;;9.90;91.00;;;;;;4955865;28;19913;-78
2022/01/25 06:41:48;;;;;;;;;;;9.90;91.00;;;;;;4959959;28;20341;-82
2022/01/25 06:44:14;;;;;;;;;;;9.90;91.00;;;;;;4964353;28;19910;-80
2022/01/25 06:46:39;;;;;;;;;;;9.90;91.00;;;;;;4979037;28;19906;-82
2022/01/25 06:49:05;;;;;;;;;;;9.90;91.00;;;;;;4964051;28;20440;-81
2022/01/25 06:51:30;;;;;;;;;;;9.90;91.00;;;;;;4960338;28;19902;-82
2022/01/25 06:53:56;;;;;;;;;;;9.90;91.00;;;;;;4953160;28;20001;-81
2022/01/25 06:56:21;;;;;;;;;;;9.90;91.00;;;;;;4962773;28;19949;-78
2022/01/25 06:58:47;;;;;;;;;;;9.90;91.00;;;;;;4980405;28;19969;-82
2022/01/25 07:01:12;;;;;;;;;;;9.90;91.00;;;;;;4983715;28;19910;-81
2022/01/25 07:03:38;;;;;;;;;;;9.90;91.00;;;;;;4961016;28;19913;-79
2022/01/25 07:06:03;;;;;;;;;;;9.90;91.00;;;;;;4964423;28;19906;-79
2022/01/25 07:08:29;;;;;;;;;;;9.90;91.00;;;;;;4957847;28;20768;-82
2022/01/25 07:10:54;;;;;;;;;;;9.90;91.00;;;;;;4971297;28;19903;-81
2022/01/25 07:13:20;;;;;;;;;;;9.90;91.00;;;;;;4959221;28;19977;-80
2022/01/25 07:15:45;;;;;;;;;;;9.90;90.80;;;;;;4973930;28;19914;-79
2022/01/25 07:18:11;;;;;;;;;;;9.80;90.70;;;;;;4962307;28;19902;-79
2022/01/25 07:20:36;;;;;;;;;;;9.80;90.50;;;;;;4980755;28;19965;-85
2022/01/25 07:23:02;;;;;;;;;;;9.80;90.40;;;;;;4972657;28;20404;-82
2022/01/25 07:25:27;;;;;;;;;;;9.80;90.30;;;;;;4975883;28;19918;-84
2022/01/25 07:27:53;;;;;;;;;;;9.70;90.30;;;;;;4960465;28;19910;-86
2022/01/25 07:30:19;;;;;;;;;;;9.70;90.30;;;;;;4958722;28;19917;-87
2022/01/25 07:32:44;;;;;;;;;;;9.70;90.30;;;;;;4958096;28;19918;-86
2022/01/25 07:35:10;;;;;;;;;;;9.70;90.20;;;;;;4959779;28;19927;-85
2022/01/25 07:37:35;;;;;;;;;;;9.70;90.20;;;;;;4960335;28;19933;-85
2022/01/25 07:40:01;;;;;;;;;;;9.70;90.20;;;;;;4960188;28;19910;-88
2022/01/25 07:42:28;;;;;;;;;;;9.70;90.20;;;;;;4976683;28;19910;-85
2022/01/25 07:44:55;;;;;;;;;;;9.70;90.20;;;;;;4960208;28;20392;-87
2022/01/25 07:47:20;;;;;;;;;;;9.60;90.10;;;;;;4960475;28;19934;-85
2022/01/25 07:49:46;;;;;;;;;;;9.60;90.10;;;;;;4958953;28;19917;-84
2022/01/25 07:52:12;;;;;;;;;;;9.60;90.10;;;;;;4958495;28;19910;-84
2022/01/25 07:54:37;;;;;;;;;;;9.70;90.20;;;;;;4976509;28;20393;-85
2022/01/25 07:57:03;;;;;;;;;;;9.60;90.10;;;;;;4960854;28;19910;-85
2022/01/25 07:59:29;;;;;;;;;;;9.60;90.10;;;;;;4962938;28;19973;-86
2022/01/25 08:01:54;;;;;;;;;;;9.60;90.10;;;;;;4962006;28;19942;-84
2022/01/25 08:04:20;;;;;;;;;;;9.60;90.10;;;;;;4961859;28;19917;-86
2022/01/25 08:06:45;;;;;;;;;;;9.60;90.10;;;;;;4978290;28;19906;-85
2022/01/25 08:09:11;;;;;;;;;;;9.60;90.00;;;;;;4961584;28;19957;-87
2022/01/25 08:11:37;;;;;;;;;;;9.60;90.10;;;;;;4964275;28;19917;-85
2022/01/25 08:14:14;;;;;;;;;;;9.60;90.00;;;;;;4982601;28;19913;-84
2022/01/25 08:16:40;;;;;;;;;;;9.60;90.00;;;;;;4963927;28;19920;-86
2022/01/25 08:19:05;;;;;;;;;;;9.60;90.00;;;;;;4981185;28;19945;-85
2022/01/25 08:21:31;;;;;;;;;;;9.60;90.00;;;;;;4979897;28;20436;-86
2022/01/25 08:23:56;;;;;;;;;;;9.60;90.00;;;;;;4962365;28;20388;-84
2022/01/25 08:26:22;;;;;;;;;;;9.60;90.00;;;;;;4962911;28;19917;-86
2022/01/25 08:28:47;;;;;;;;;;;9.60;90.00;;;;;;4962340;28;19921;-86
2022/01/25 08:31:13;;;;;;;;;;;9.60;90.00;;;;;;4979613;28;19906;-85
2022/01/25 08:33:39;;;;;;;;;;;9.60;90.00;;;;;;4961914;28;19910;-85
2022/01/25 08:36:05;;;;;;;;;;;9.60;90.00;;;;;;4962981;28;20369;-87
2022/01/25 08:38:30;;;;;;;;;;;9.60;90.00;;;;;;4963073;28;19917;-86
2022/01/25 08:40:56;;;;;;;;;;;9.60;90.00;;;;;;4979709;28;19916;-85
2022/01/25 08:43:22;;;;;;;;;;;9.60;90.00;;;;;;4963162;28;19933;-84
2022/01/25 08:45:47;;;;;;;;;;;9.60;90.00;;;;;;4963696;28;19906;-85
2022/01/25 08:48:12;;;;;;;;;;;9.60;90.00;;;;;;4962904;28;20296;-85
2022/01/25 08:50:38;;;;;;;;;;;9.60;90.00;;;;;;4980075;28;19906;-84
2022/01/25 08:53:03;;;;;;;;;;;9.60;90.00;;;;;;4961763;28;19976;-85
2022/01/25 08:55:29;;;;;;;;;;;9.60;89.80;;;;;;4961329;28;20433;-85
2022/01/25 08:57:56;;;;;;;;;;;9.60;90.20;;;;;;4978682;28;19910;-86
2022/01/25 09:00:22;;;;;;;;;;;9.60;89.90;;;;;;4961484;28;20448;-85
2022/01/25 09:02:47;;;;;;;;;;;9.60;89.80;;;;;;4961511;28;20016;-85
2022/01/25 09:05:13;;;;;;;;;;;9.60;89.80;;;;;;4962546;28;19938;-84
2022/01/25 09:07:38;;;;;;;;;;;9.70;89.90;;;;;;4961578;28;19910;-87
2022/01/25 09:10:04;;;;;;;;;;;9.60;89.80;;;;;;4961405;28;19910;-85
2022/01/25 09:12:29;;;;;;;;;;;9.60;89.90;;;;;;4961371;28;20010;-86
2022/01/25 09:14:55;;;;;;;;;;;9.60;89.90;;;;;;4960975;28;20110;-85
2022/01/25 09:17:20;;;;;;;;;;;9.60;89.90;;;;;;4961176;28;19906;-85
2022/01/25 09:19:45;;;;;;;;;;;9.50;89.90;;;;;;4961552;28;19961;-84
2022/01/25 09:22:11;;;;;;;;;;;9.60;89.90;;;;;;4958555;28;20300;-82
2022/01/25 09:24:39;;;;;;;;;;;9.60;89.90;;;;;;4958831;28;19968;-86
2022/01/25 09:27:07;;;;;;;;;;;9.60;89.50;;;;;;4952141;28;20001;-83
2022/01/25 09:29:33;;;;;;;;;;;9.50;89.40;;;;;;4971502;28;19977;-81
2022/01/25 09:31:58;;;;;;;;;;;9.50;89.50;;;;;;4956449;28;19906;-86
2022/01/25 09:34:25;;;;;;;;;;;9.50;89.40;;;;;;4953869;29;19910;-84
2022/01/25 09:36:51;;;;;;;;;;;9.50;89.60;;;;;;4957455;28;19943;-83
2022/01/25 09:39:16;;;;;;;;;;;9.60;89.60;;;;;;4941054;29;19915;-84
2022/01/25 09:41:42;;;;;;;;;;;9.50;89.60;;;;;;4939143;29;19914;-83
2022/01/25 09:44:08;;;;;;;;;;;9.50;89.70;;;;;;4960510;28;19937;-82
2022/01/25 09:46:33;;;;;;;;;;;9.50;90.00;;;;;;4958958;28;19909;-82
2022/01/25 09:48:59;;;;;;;;;;;9.60;89.50;;;;;;4958131;28;19910;-82
2022/01/25 09:51:25;;;;;;;;;;;9.50;88.20;;;;;;4954298;28;19961;-84
2022/01/25 09:53:51;;;;;;;;;;;9.50;86.80;;;;;;4958940;28;19933;-82
2022/01/25 09:56:16;;;;;;;;;;;9.50;86.90;;;;;;4950119;29;19906;-85
2022/01/25 09:58:44;;;;;;;;;;;9.50;87.40;;;;;;4940483;29;20429;-84
2022/01/25 10:01:10;;;;;;;;;;;9.50;87.70;;;;;;4961064;28;19987;-83
2022/01/25 10:03:41;;;;;;;;;;;9.50;88.00;;;;;;4960452;28;19954;-82
2022/01/25 10:06:11;;;;;;;;;;;9.50;88.20;;;;;;4959590;28;19906;-82
2022/01/25 10:08:37;;;;;;;;;;;9.50;88.50;;;;;;4966564;28;19910;-83
2022/01/25 10:11:04;;;;;;;;;;;9.50;88.60;;;;;;4940420;29;19913;-83
2022/01/25 10:13:31;;;;;;;;;;;9.50;88.60;;;;;;4965705;28;19910;-81
2022/01/25 10:16:04;;;;;;;;;;;9.50;88.70;;;;;;4958473;28;20395;-83
2022/01/25 10:18:37;;;;;;;;;;;9.50;88.80;;;;;;4955718;28;20385;-82
2022/01/25 10:21:02;;;;;;;;;;;9.40;88.70;;;;;;4950511;28;19917;-81
2022/01/25 10:23:31;;;;;;;;;;;9.40;88.90;;;;;;4950513;28;19918;-83
2022/01/25 10:25:59;;;;;;;;;;;9.50;89.00;;;;;;4945275;28;20478;-82
2022/01/25 10:28:27;;;;;;;;;;;9.50;88.90;;;;;;4965172;28;20404;-82
2022/01/25 10:31:01;;;;;;;;;;;9.50;88.90;;;;;;4945934;28;19985;-85
2022/01/25 10:33:39;;;;;;;;;;;9.50;88.90;;;;;;4973597;28;19914;-82
2022/01/25 10:36:11;;;;;;;;;;;9.50;88.90;;;;;;4946708;28;19910;-81
2022/01/25 10:38:36;;;;;;;;;;;9.50;88.90;;;;;;4947858;28;19920;-81
2022/01/25 10:41:04;;;;;;;;;;;9.50;89.00;;;;;;4963470;28;19911;-81
2022/01/25 10:43:31;;;;;;;;;;;9.50;89.10;;;;;;4950340;28;20288;-83
2022/01/25 10:46:03;;;;;;;;;;;9.40;89.10;;;;;;4974018;28;19973;-84
2022/01/25 10:48:29;;;;;;;;;;;9.50;89.10;;;;;;4955785;28;19961;-79
2022/01/25 10:51:01;;;;;;;;;;;9.50;89.10;;;;;;4941309;29;19911;-82
2022/01/25 10:53:27;;;;;;;;;;;9.50;89.20;;;;;;4944039;28;19906;-81
2022/01/25 10:55:52;;;;;;;;;;;9.50;89.10;;;;;;4956808;28;20269;-79
2022/01/25 10:58:18;;;;;;;;;;;9.50;89.10;;;;;;4942655;28;20376;-81
2022/01/25 11:00:45;;;;;;;;;;;9.40;89.10;;;;;;4976503;28;19964;-79
2022/01/25 11:03:23;;;;;;;;;;;9.50;89.20;;;;;;4959333;28;19932;-81
2022/01/25 11:05:49;;;;;;;;;;;9.50;89.10;;;;;;4959949;28;20365;-81
2022/01/25 11:08:16;;;;;;;;;;;9.50;89.10;;;;;;4960797;28;19925;-80
2022/01/25 11:10:46;;;;;;;;;;;9.50;89.10;;;;;;4977934;28;19920;-80
2022/01/25 11:13:23;;;;;;;;;;;9.50;89.20;;;;;;4959830;28;19992;-81
2022/01/25 11:15:49;;;;;;;;;;;9.50;89.20;;;;;;4954138;28;19926;-81
2022/01/25 11:18:14;;;;;;;;;;;9.50;89.10;;;;;;4950480;28;20009;-82
2022/01/25 11:20:40;;;;;;;;;;;9.40;89.10;;;;;;4968709;28;19968;-84
2022/01/25 11:23:05;;;;;;;;;;;9.50;89.10;;;;;;4956231;28;19910;-81
2022/01/25 11:25:31;;;;;;;;;;;9.50;89.20;;;;;;4957285;28;19910;-82
2022/01/25 11:27:57;;;;;;;;;;;9.50;89.20;;;;;;4974712;28;19906;-82
2022/01/25 11:30:22;;;;;;;;;;;9.50;89.20;;;;;;4957941;28;20046;-84
2022/01/25 11:32:49;;;;;;;;;;;9.50;89.20;;;;;;4973673;28;19977;-80
2022/01/25 11:35:18;;;;;;;;;;;9.50;89.20;;;;;;4938254;28;19921;-83
2022/01/25 11:37:44;;;;;;;;;;;9.50;89.30;;;;;;4958600;28;19910;-81
2022/01/25 11:40:20;;;;;;;;;;;9.50;89.20;;;;;;4962114;28;19909;-83
2022/01/25 11:42:46;;;;;;;;;;;9.50;89.30;;;;;;4961004;28;19933;-82
2022/01/25 11:45:12;;;;;;;;;;;9.50;89.30;;;;;;4962954;28;19910;-81
2022/01/25 11:47:37;;;;;;;;;;;9.50;89.30;;;;;;4979516;28;19917;-82
2022/01/25 11:50:05;;;;;;;;;;;9.50;89.30;;;;;;4962648;28;19968;-81
2022/01/25 11:52:30;;;;;;;;;;;9.50;89.40;;;;;;4979057;28;20371;-82
2022/01/25 11:55:15;;;;;;;;;;;9.50;89.30;;;;;;4962964;28;20012;-82
2022/01/25 11:57:47;;;;;;;;;;;9.50;89.30;;;;;;4980609;28;20328;-82
2022/01/25 12:00:13;;;;;;;;;;;9.50;89.30;;;;;;4962250;28;19906;-82
2022/01/25 12:02:43;;;;;;;;;;;9.40;89.30;;;;;;4962142;28;19914;-81
2022/01/25 12:05:13;;;;;;;;;;;9.50;89.90;;;;;;4961285;28;19906;-81
2022/01/25 12:07:41;;;;;;;;;;;9.50;89.30;;;;;;4979690;28;19996;-82
2022/01/25 12:10:25;;;;;;;;;;;9.50;89.30;;;;;;4976666;28;20426;-81
2022/01/25 12:13:09;;;;;;;;;;;9.50;89.20;;;;;;4973457;28;19961;-81
2022/01/25 12:15:35;;;;;;;;;;;9.40;86.10;;;;;;4960942;28;19925;-82
2022/01/25 12:18:02;;;;;;;;;;;9.40;85.20;;;;;;4956078;28;19906;-82
2022/01/25 12:20:27;;;;;;;;;;;9.40;84.50;;;;;;4956319;28;19914;-82
2022/01/25 12:23:06;;;;;;;;;;;9.40;85.10;;;;;;4973290;28;20289;-81
2022/01/25 12:25:46;;;;;;;;;;;9.40;85.70;;;;;;4945525;28;19914;-82
2022/01/25 12:28:31;;;;;;;;;;;9.40;86.20;;;;;;4954412;28;19918;-81
2022/01/25 12:31:00;;;;;;;;;;;9.40;85.70;;;;;;4960129;28;19977;-82
2022/01/25 12:33:27;;;;;;;;;;;9.40;84.80;;;;;;4948434;28;19917;-81
2022/01/25 12:35:54;;;;;;;;;;;9.40;83.90;;;;;;4963401;28;19918;-81
2022/01/25 12:38:23;;;;;;;;;;;9.40;82.90;;;;;;4961965;28;19981;-83
2022/01/25 12:41:05;;;;;;;;;;;9.40;83.20;;;;;;4959151;28;20081;-82
2022/01/25 12:43:38;;;;;;;;;;;9.40;83.80;;;;;;4976618;28;19914;-79
2022/01/25 12:46:14;;;;;;;;;;;9.40;84.40;;;;;;4954396;28;19968;-82
2022/01/25 12:48:46;;;;;;;;;;;9.40;83.80;;;;;;4951639;28;19957;-80
2022/01/25 12:51:12;;;;;;;;;;;9.40;82.70;;;;;;4963771;28;19910;-81
2022/01/25 12:53:40;;;;;;;;;;;9.40;82.90;;;;;;4962894;28;20302;-79
2022/01/25 12:56:07;;;;;;;;;;;9.40;83.50;;;;;;4962700;28;20365;-82
2022/01/25 12:58:34;;;;;;;;;;;9.40;84.10;;;;;;4963590;28;20207;-81
2022/01/25 13:01:01;;;;;;;;;;;9.40;84.70;;;;;;4962622;28;19910;-81
2022/01/25 13:03:28;;;;;;;;;;;9.40;85.00;;;;;;4966294;28;19981;-82
2022/01/25 13:05:53;;;;;;;;;;;9.40;85.30;;;;;;4965198;28;19917;-84
2022/01/25 13:08:21;;;;;;;;;;;9.40;85.60;;;;;;4964258;28;19910;-81
2022/01/25 13:10:48;;;;;;;;;;;9.40;85.80;;;;;;4958241;28;20403;-81
2022/01/25 13:13:22;;;;;;;;;;;9.40;86.00;;;;;;4970550;28;19978;-84
2022/01/25 13:18:14;;;;;;;;;;;9.40;86.30;;;;;;4981508;28;20325;-83
2022/01/25 13:20:41;;;;;;;;;;;9.40;86.50;;;;;;4964106;28;20009;-83
2022/01/25 13:23:07;;;;;;;;;;;9.40;86.60;;;;;;4945338;28;1026192;-83
2022/01/25 13:25:52;;;;;;;;;;;9.40;86.80;;;;;;4965550;28;19910;-83
2022/01/25 13:31:06;;;;;;;;;;;9.40;86.90;;;;;;4980794;28;19990;-81
2022/01/25 13:33:31;;;;;;;;;;;9.40;87.00;;;;;;4964118;28;19910;-83
2022/01/25 13:35:57;;;;;;;;;;;9.40;87.10;;;;;;4959795;28;19968;-83
2022/01/25 13:38:41;;;;;;;;;;;9.40;87.20;;;;;;4955545;28;19914;-83
2022/01/25 13:41:19;;;;;;;;;;;9.40;87.30;;;;;;4953146;29;19938;-83
2022/01/25 13:46:18;;;;;;;;;;;9.40;87.30;;;;;;4962837;29;20358;-83
2022/01/25 13:48:45;;;;;;;;;;;9.40;87.30;;;;;;4945057;29;19914;-84
2022/01/25 13:51:11;;;;;;;;;;;9.40;87.40;;;;;;4952065;28;19913;-81
2022/01/25 13:53:37;;;;;;;;;;;9.40;87.40;;;;;;4963096;28;19933;-84
2022/01/25 13:56:04;;;;;;;;;;;9.40;87.40;;;;;;4966923;28;19979;-84
2022/01/25 13:58:34;;;;;;;;;;;9.40;87.40;;;;;;4981652;28;19910;-84
2022/01/25 14:01:00;;;;;;;;;;;9.40;87.50;;;;;;4969531;28;19917;-83
2022/01/25 14:03:27;;;;;;;;;;;9.40;87.50;;;;;;4979708;28;19913;-82
2022/01/25 14:05:53;;;;;;;;;;;9.40;87.60;;;;;;4979873;28;19960;-82
2022/01/25 14:08:31;;;;;;;;;;;9.40;87.70;;;;;;4980803;28;19918;-82
2022/01/25 14:10:59;;;;;;;;;;;9.40;87.80;;;;;;4980767;28;20013;-82
2022/01/25 14:21:57;;;;;;;;;;;9.40;88.00;;;;;;4981759;28;19934;-84
2022/01/25 14:24:30;;;;;;;;;;;9.40;88.00;;;;;;4982003;28;19918;-84
2022/01/25 14:26:58;;;;;;;;;;;9.40;88.10;;;;;;4965008;28;19917;-84
2022/01/25 14:29:23;;;;;;;;;;;9.40;88.10;;;;;;4981394;28;19917;-82
2022/01/25 14:31:49;;;;;;;;;;;9.40;88.10;;;;;;4946354;28;20087;-81
2022/01/25 14:34:15;;;;;;;;;;;9.40;88.20;;;;;;4944957;29;19914;-83
2022/01/25 14:36:46;;;;;;;;;;;9.40;88.20;;;;;;4952195;28;20266;-81
2022/01/25 14:39:12;;;;;;;;;;;9.40;88.20;;;;;;4963902;28;19906;-82
2022/01/25 14:41:38;;;;;;;;;;;9.40;88.30;;;;;;4962875;28;20017;-83
2022/01/25 14:44:07;;;;;;;;;;;9.40;88.40;;;;;;4962861;28;19978;-81
2022/01/25 14:46:47;;;;;;;;;;;9.40;88.40;;;;;;4963566;28;19910;-82
2022/01/25 14:49:18;;;;;;;;;;;9.40;88.40;;;;;;4963906;28;19917;-84
2022/01/25 14:51:43;;;;;;;;;;;9.40;88.50;;;;;;4962364;28;19910;-82
2022/01/25 14:54:11;;;;;;;;;;;9.40;88.50;;;;;;4980220;28;19914;-83
2022/01/25 14:56:39;;;;;;;;;;;9.40;88.50;;;;;;4980788;28;19943;-81
2022/01/25 14:59:25;;;;;;;;;;;9.40;88.50;;;;;;4963719;28;19910;-86
2022/01/25 15:02:04;;;;;;;;;;;9.40;88.50;;;;;;4979942;28;19920;-82
2022/01/25 15:04:31;;;;;;;;;;;9.40;88.50;;;;;;4959466;28;19918;-81
2022/01/25 15:06:59;;;;;;;;;;;9.40;88.50;;;;;;4951518;28;19921;-85
2022/01/25 15:09:25;;;;;;;;;;;9.40;88.50;;;;;;4962646;28;20294;-83
2022/01/25 15:11:52;;;;;;;;;;;9.40;88.50;;;;;;4960144;28;19911;-82
2022/01/25 15:14:21;;;;;;;;;;;9.40;88.50;;;;;;4975081;28;20460;-83
2022/01/25 15:16:47;;;;;;;;;;;9.40;88.60;;;;;;4979853;28;19914;-81
2022/01/25 15:19:18;;;;;;;;;;;9.40;88.60;;;;;;4976413;28;19958;-82
2022/01/25 15:21:45;;;;;;;;;;;9.40;88.60;;;;;;4943600;29;19917;-82
2022/01/25 15:24:10;;;;;;;;;;;9.40;88.70;;;;;;4943554;29;20010;-83
2022/01/25 15:26:37;;;;;;;;;;;9.40;88.70;;;;;;4957776;28;19957;-81
2022/01/25 15:29:04;;;;;;;;;;;9.40;88.70;;;;;;4963649;28;20361;-84
2022/01/25 15:31:30;;;;;;;;;;;9.40;88.70;;;;;;4963075;28;19917;-82
2022/01/25 15:33:55;;;;;;;;;;;9.40;88.80;;;;;;4961520;28;19910;-82
2022/01/25 15:36:21;;;;;;;;;;;9.40;88.80;;;;;;4955714;28;19913;-81
2022/01/25 15:38:48;;;;;;;;;;;9.40;88.80;;;;;;4955210;28;19933;-82
2022/01/25 15:41:14;;;;;;;;;;;9.40;88.90;;;;;;4948963;28;19914;-81
2022/01/25 15:43:49;;;;;;;;;;;9.40;88.90;;;;;;4971004;28;19933;-82
2022/01/25 15:49:13;;;;;;;;;;;9.30;88.90;;;;;;4924970;28;20269;-80
2022/01/25 15:51:38;;;;;;;;;;;9.40;89.40;;;;;;4971700;28;19906;-82
2022/01/25 15:54:04;;;;;;;;;;;9.40;88.90;;;;;;4953296;28;19941;-81
2022/01/25 15:56:30;;;;;;;;;;;9.40;88.90;;;;;;4936795;29;20379;-82
2022/01/25 15:58:55;;;;;;;;;;;9.40;88.80;;;;;;4952194;29;20603;-83
2022/01/25 16:01:21;;;;;;;;;;;9.40;88.80;;;;;;4937760;28;19966;-84
2022/01/25 16:03:47;;;;;;;;;;;9.40;88.90;;;;;;4983185;28;19906;-83
2022/01/25 16:06:13;;;;;;;;;;;9.40;88.90;;;;;;4963747;28;19977;-84
2022/01/25 16:08:38;;;;;;;;;;;9.40;88.70;;;;;;4963715;28;19906;-83
2022/01/25 16:11:14;;;;;;;;;;;9.40;88.70;;;;;;4962818;28;19902;-83
2022/01/25 16:13:43;;;;;;;;;;;9.30;88.80;;;;;;4962657;28;19910;-83
2022/01/25 16:16:09;;;;;;;;;;;9.40;88.90;;;;;;4962382;28;19909;-83
2022/01/25 16:18:34;;;;;;;;;;;9.40;88.90;;;;;;4963183;28;20112;-83
2022/01/25 16:21:00;;;;;;;;;;;9.30;88.90;;;;;;4965232;28;19926;-81
2022/01/25 16:23:25;;;;;;;;;;;9.40;88.90;;;;;;4982642;28;19913;-83
2022/01/25 16:25:51;;;;;;;;;;;9.50;88.20;;;;;;4982125;28;20386;-83
2022/01/25 16:28:16;;;;;;;;;;;9.30;88.00;;;;;;4975903;28;19917;-81
2022/01/25 16:30:42;;;;;;;;;;;9.40;88.00;;;;;;4982879;28;19906;-81
2022/01/25 16:33:07;;;;;;;;;;;9.40;88.10;;;;;;4964208;28;19910;-80